This is the latest recevied weather packets stored in our database for station/object KJ5JYX. If no packets are shown the sender has not sent any weather packets the latest 10 day(s).
| Time | Temp. | Humidity | Pressure | Rain* | Wind** | Luminosity | Snow |
|---|---|---|---|---|---|---|---|
| 1777873147 | 18.89° C | 67% | 1017.8 hPa | 0 mm | - | 0 W/m² | - |
| 1777872843 | 18.89° C | 67% | 1018 hPa | 0 mm | - | 0 W/m² | - |
| 1777872541 | 18.33° C | 68% | 1017.9 hPa | 0 mm | - | 0 W/m² | - |
| 1777872239 | 18.33° C | 66% | 1017.8 hPa | 0 mm | - | 0 W/m² | - |
| 1777871935 | 18.33° C | 66% | 1017.8 hPa | 0 mm | - | 0 W/m² | - |
| 1777871632 | 17.78° C | 67% | 1017.9 hPa | 0 mm | - | 0 W/m² | - |
| 1777871329 | 17.78° C | 68% | 1017.8 hPa | 0 mm | - | 0 W/m² | - |
| 1777871026 | 16.67° C | 71% | 1018.1 hPa | 0 mm | - | 0 W/m² | - |
| 1777870723 | 16.11° C | 72% | 1018.1 hPa | 0 mm | - | 0 W/m² | - |
| 1777870418 | 16.11° C | 74% | 1018.1 hPa | 0 mm | - | 0 W/m² | - |
| 1777870115 | 16.11° C | 76% | 1017.8 hPa | 0 mm | - | 0 W/m² | - |
| 1777869812 | 16.11° C | 75% | 1018.1 hPa | 0 mm | - | 0 W/m² | - |
| 1777869510 | 16.11° C | 78% | 1017.8 hPa | 0 mm | - | 0 W/m² | - |
| 1777869206 | 16.11° C | 79% | 1017.9 hPa | 0 mm | - | 0 W/m² | - |
| 1777868904 | 16.11° C | 78% | 1018 hPa | 0 mm | - | 0 W/m² | - |
| 1777868600 | 16.67° C | 76% | 1018.2 hPa | 0 mm | - | 0 W/m² | - |
| 1777868296 | 16.67° C | 75% | 1018.2 hPa | 0 mm | - | 0 W/m² | - |
| 1777867993 | 16.67° C | 71% | 1017.8 hPa | 0 mm | - | 0 W/m² | - |
| 1777867689 | 16.67° C | 72% | 1018 hPa | 0 mm | - | 0 W/m² | - |
| 1777867387 | 17.22° C | 69% | 1018.1 hPa | 0 mm | - | 0 W/m² | - |
| 1777867082 | 17.22° C | 70% | 1018.3 hPa | 0 mm | - | 0 W/m² | - |
| 1777866780 | 17.22° C | 70% | 1018.2 hPa | 0 mm | - | 0 W/m² | - |
| 1777866477 | 17.22° C | 68% | 1018.3 hPa | 0 mm | - | 0 W/m² | - |
| 1777865872 | 17.78° C | 68% | 1018 hPa | 0 mm | - | 0 W/m² | - |
| 1777865266 | 17.78° C | 66% | 1018.2 hPa | 0 mm | - | 0 W/m² | - |
* Rain latest hour (hover to see other rain measurements)
** Current wind speed in m/s (hover to see current wind gust speed)